Wakefield, Wakefield Municipal Airport (KAKQ)

NameWakefield Municipal Airport
CityWakefield
CountryUnited States
ICAOKAKQ
IATA
Altitude34 m
CoordinatesGoogle Map
Live Air TrafficLiveATC.net
METARKAKQ 190154Z AUTO 00000KT 10SM CLR 16/13 A3022 RMK AO2 SLP232 T01560133
2019-09-19 01:54:00 Wind: North (0°) 0 m/s - Visibility: 16093.4 m - Temperature: 16 °C - Dew point: 13 °C - Humidity: 82.5% - Pressure: 1023.37 hPa
Statistics

The table below shows the detailed information of all flights to/from Wakefield, Wakefield Municipal Airport (KAKQ).